createdAt,value
2024-03-12T00:01:40.837Z,-1.93
2024-03-12T00:04:09.136Z,-1.93
2024-03-12T00:06:36.532Z,-1.94
2024-03-12T00:09:07.034Z,-1.94
2024-03-12T00:11:35.138Z,-1.94
2024-03-12T00:14:02.962Z,-1.95
2024-03-12T00:16:32.780Z,-1.95
2024-03-12T00:19:01.208Z,-1.94
2024-03-12T00:21:29.634Z,-1.95
2024-03-12T00:23:56.478Z,-1.95
2024-03-12T00:26:23.260Z,-1.96
2024-03-12T00:28:50.207Z,-1.99
2024-03-12T00:31:17.420Z,-2.01
2024-03-12T00:33:47.859Z,-2.01
2024-03-12T00:36:14.882Z,-2.01
2024-03-12T00:38:42.271Z,-2.02
2024-03-12T00:41:09.147Z,-2.03
2024-03-12T00:43:36.311Z,-2.04
2024-03-12T00:46:04.992Z,-2.04
2024-03-12T00:48:32.303Z,-2.04
2024-03-12T00:50:59.124Z,-2.04
2024-03-12T00:53:25.933Z,-2.05
2024-03-12T00:55:53.680Z,-2.06
2024-03-12T00:58:20.665Z,-2.06
2024-03-12T01:00:49.546Z,-2.05
2024-03-12T01:03:17.719Z,-2.04
2024-03-12T01:05:44.577Z,-2.02
2024-03-12T01:08:12.535Z,-2.02
2024-03-12T01:10:39.879Z,-2.01
2024-03-12T01:13:06.806Z,-2.01
2024-03-12T01:15:34.816Z,-2.01
2024-03-12T01:18:02.425Z,-2.01
2024-03-12T01:20:29.633Z,-1.99
2024-03-12T01:22:56.493Z,-1.97
2024-03-12T01:25:23.463Z,-1.97
2024-03-12T01:27:52.729Z,-1.97
2024-03-12T01:30:21.189Z,-1.96
2024-03-12T01:32:48.530Z,-1.96
2024-03-12T01:35:15.847Z,-1.95
2024-03-12T01:37:45.999Z,-1.95
2024-03-12T01:40:20.105Z,-1.95
2024-03-12T01:42:49.338Z,-1.95
2024-03-12T01:45:22.681Z,-1.96
2024-03-12T01:47:50.754Z,-1.97
2024-03-12T01:50:18.654Z,-1.98
2024-03-12T01:52:47.273Z,-1.98
2024-03-12T01:55:14.826Z,-1.98
2024-03-12T01:57:42.504Z,-1.99
2024-03-12T02:00:13.852Z,-1.98
2024-03-12T02:02:45.031Z,-1.96
2024-03-12T02:05:13.377Z,-1.97
2024-03-12T02:07:41.399Z,-1.96
2024-03-12T02:10:09.288Z,-1.96
2024-03-12T02:12:36.084Z,-1.97
2024-03-12T02:15:04.255Z,-1.98
2024-03-12T02:17:31.473Z,-1.98
2024-03-12T02:19:58.735Z,-1.98
2024-03-12T02:22:25.887Z,-1.97
2024-03-12T02:24:53.506Z,-1.98
2024-03-12T02:27:20.462Z,-1.99
2024-03-12T02:29:50.444Z,-2.01
2024-03-12T02:32:18.393Z,-2.03
2024-03-12T02:34:45.496Z,-2.04
2024-03-12T02:37:12.428Z,-2.04
2024-03-12T02:39:39.478Z,-2.04
2024-03-12T02:42:08.807Z,-2.05
2024-03-12T02:44:37.518Z,-2.05
2024-03-12T02:47:04.809Z,-2.05
2024-03-12T02:49:31.557Z,-2.05
2024-03-12T02:51:58.390Z,-2.06
2024-03-12T02:54:28.142Z,-2.06
2024-03-12T02:56:55.061Z,-2.05
2024-03-12T02:59:22.172Z,-2.04
2024-03-12T03:01:49.006Z,-2.03
2024-03-12T03:04:15.774Z,-2.04
2024-03-12T03:06:42.457Z,-2.04
2024-03-12T03:09:11.134Z,-2.04
2024-03-12T03:11:38.038Z,-2.03
2024-03-12T03:14:04.881Z,-2.03
2024-03-12T03:16:33.966Z,-2.04
2024-03-12T03:19:00.683Z,-2.04
2024-03-12T03:21:27.626Z,-2.04
2024-03-12T03:23:54.286Z,-2.04
2024-03-12T03:26:20.972Z,-2.03
2024-03-12T03:28:49.085Z,-2.02
2024-03-12T03:31:15.761Z,-2.01
2024-03-12T03:33:45.841Z,-2.01
2024-03-12T03:36:15.778Z,-2.00
2024-03-12T03:38:42.607Z,-1.99
2024-03-12T03:41:10.190Z,-1.98
2024-03-12T03:43:37.481Z,-1.97
2024-03-12T03:46:04.986Z,-1.97
2024-03-12T03:48:31.980Z,-1.97
2024-03-12T03:50:59.609Z,-1.97
2024-03-12T03:53:27.610Z,-1.97
2024-03-12T03:55:55.493Z,-1.96
2024-03-12T03:58:25.435Z,-1.94
2024-03-12T04:00:52.267Z,-1.91
2024-03-12T04:03:19.226Z,-1.89
2024-03-12T04:05:46.194Z,-1.89
2024-03-12T04:08:13.349Z,-1.91
2024-03-12T04:10:43.089Z,-1.92
2024-03-12T04:13:10.338Z,-1.92
2024-03-12T04:15:37.680Z,-1.90
2024-03-12T04:18:06.466Z,-1.91
2024-03-12T04:20:33.133Z,-1.91
2024-03-12T04:23:02.157Z,-1.89
2024-03-12T04:25:29.102Z,-1.89
2024-03-12T04:27:56.463Z,-1.88
2024-03-12T04:30:23.379Z,-1.86
2024-03-12T04:32:50.214Z,-1.85
2024-03-12T04:35:17.130Z,-1.82
2024-03-12T04:37:45.152Z,-1.79
2024-03-12T04:40:12.911Z,-1.75
2024-03-12T04:42:40.814Z,-1.72
2024-03-12T04:45:09.064Z,-1.70
2024-03-12T04:47:38.548Z,-1.67
2024-03-12T04:50:08.558Z,-1.64
2024-03-12T04:52:35.426Z,-1.61
2024-03-12T04:55:02.458Z,-1.58
2024-03-12T04:57:29.886Z,-1.57
2024-03-12T04:59:56.618Z,-1.55
2024-03-12T05:02:23.321Z,-1.54
2024-03-12T05:04:50.111Z,-1.51
2024-03-12T05:07:16.923Z,-1.50
2024-03-12T05:09:43.678Z,-1.48
2024-03-12T05:12:10.761Z,-1.46
2024-03-12T05:14:38.015Z,-1.44
2024-03-12T05:17:04.914Z,-1.41
2024-03-12T05:19:31.703Z,-1.37
2024-03-12T05:21:59.591Z,-1.32
2024-03-12T05:24:29.137Z,-1.27
2024-03-12T05:26:56.141Z,-1.22
2024-03-12T05:29:26.881Z,-1.17
2024-03-12T05:31:54.048Z,-1.11
2024-03-12T05:34:29.847Z,-1.03
2024-03-12T05:37:04.641Z,-0.95
2024-03-12T05:40:01.369Z,-0.89
2024-03-12T05:42:46.916Z,-0.84
2024-03-12T05:45:32.452Z,-0.79
2024-03-12T05:48:10.231Z,-0.77
2024-03-12T05:50:39.068Z,-0.72
2024-03-12T05:53:05.992Z,-0.66
2024-03-12T05:55:33.070Z,-0.62
2024-03-12T05:58:00.007Z,-0.59
2024-03-12T06:00:27.463Z,-0.55
2024-03-12T06:02:54.362Z,-0.50
2024-03-12T06:05:21.450Z,-0.47
2024-03-12T06:07:53.102Z,-0.43
2024-03-12T06:10:20.199Z,-0.40
2024-03-12T06:12:47.403Z,-0.38
2024-03-12T06:15:15.484Z,-0.35
2024-03-12T06:17:47.053Z,-0.30
2024-03-12T06:20:15.060Z,-0.28
2024-03-12T06:22:44.292Z,-0.25
2024-03-12T06:25:11.457Z,-0.23
2024-03-12T06:27:39.239Z,-0.21
2024-03-12T06:30:07.401Z,-0.18
2024-03-12T06:32:35.219Z,-0.14
2024-03-12T06:35:02.474Z,-0.07
2024-03-12T06:37:30.217Z,-0.02
2024-03-12T06:40:02.075Z,0.03
2024-03-12T06:42:32.500Z,0.07
2024-03-12T06:45:01.027Z,0.10
2024-03-12T06:47:29.546Z,0.12
2024-03-12T06:49:59.264Z,0.11
2024-03-12T06:52:27.183Z,0.14
2024-03-12T06:54:54.127Z,0.18
2024-03-12T06:57:23.020Z,0.23
2024-03-12T06:59:50.032Z,0.28
2024-03-12T07:02:18.015Z,0.35
2024-03-12T07:04:47.974Z,0.39
2024-03-12T07:07:21.402Z,0.38
2024-03-12T07:09:53.667Z,0.37
2024-03-12T07:20:24.097Z,0.45
2024-03-12T07:23:29.766Z,0.51
2024-03-12T07:25:57.820Z,0.64
2024-03-12T07:28:27.899Z,0.72
2024-03-12T07:30:55.070Z,0.79
2024-03-12T07:33:22.029Z,0.87
2024-03-12T07:35:49.345Z,0.95
2024-03-12T07:38:17.007Z,0.97
2024-03-12T07:40:44.405Z,0.99
2024-03-12T07:44:36.766Z,1.01
2024-03-12T07:47:05.274Z,1.01
2024-03-12T07:49:38.716Z,1.00
2024-03-12T07:52:07.348Z,0.98
2024-03-12T07:54:35.660Z,0.99
2024-03-12T07:57:05.404Z,1.02
2024-03-12T07:59:33.080Z,1.04
2024-03-12T08:02:04.419Z,1.07
2024-03-12T08:04:31.816Z,1.10
2024-03-12T08:06:59.045Z,1.11
2024-03-12T08:09:25.981Z,1.13
2024-03-12T08:11:53.437Z,1.16
2024-03-12T08:14:20.638Z,1.19
2024-03-12T08:17:03.350Z,1.21
2024-03-12T08:19:31.674Z,1.24
2024-03-12T08:21:59.029Z,1.27
2024-03-12T08:24:26.852Z,1.30
2024-03-12T08:26:55.234Z,1.33
2024-03-12T08:29:25.062Z,1.36
2024-03-12T08:31:59.371Z,1.40
2024-03-12T08:34:27.869Z,1.43
2024-03-12T08:36:56.045Z,1.48
2024-03-12T08:39:23.240Z,1.51
2024-03-12T08:41:50.157Z,1.55
2024-03-12T08:44:17.200Z,1.58
2024-03-12T08:46:44.156Z,1.60
2024-03-12T08:49:12.245Z,1.59
2024-03-12T08:51:40.123Z,1.58
2024-03-12T08:54:07.125Z,1.62
2024-03-12T08:56:38.761Z,1.68
2024-03-12T08:59:05.948Z,1.76
2024-03-12T09:01:33.489Z,1.84
2024-03-12T09:04:14.016Z,1.90
2024-03-12T09:06:43.232Z,1.93
2024-03-12T09:09:16.542Z,1.92
2024-03-12T09:11:43.880Z,1.89
2024-03-12T09:14:11.113Z,1.91
2024-03-12T09:16:38.216Z,1.96
2024-03-12T09:19:05.564Z,2.00
2024-03-12T09:25:56.793Z,2.02
2024-03-12T09:28:23.855Z,2.04
2024-03-12T09:30:50.924Z,2.07
2024-03-12T09:33:18.067Z,2.06
2024-03-12T09:35:45.127Z,2.06
2024-03-12T09:38:12.031Z,2.05
2024-03-12T09:40:42.852Z,2.04
2024-03-12T09:43:11.520Z,2.02
2024-03-12T09:45:39.735Z,2.01
2024-03-12T09:48:08.835Z,2.02
2024-03-12T09:50:36.467Z,2.00
2024-03-12T09:53:03.796Z,2.01
2024-03-12T09:55:32.584Z,1.98
2024-03-12T09:57:59.780Z,1.93
2024-03-12T10:00:28.880Z,1.92
2024-03-12T10:02:55.824Z,1.93
2024-03-12T10:05:23.693Z,1.91
2024-03-12T10:08:08.225Z,1.91
2024-03-12T10:10:41.138Z,1.91
2024-03-12T10:13:15.090Z,1.86
2024-03-12T10:16:01.367Z,1.80
2024-03-12T10:18:31.933Z,1.78
2024-03-12T10:21:01.760Z,1.74
2024-03-12T10:23:30.046Z,1.69
2024-03-12T10:26:19.411Z,1.64
2024-03-12T10:28:57.121Z,1.59
2024-03-12T10:31:25.296Z,1.55
2024-03-12T10:33:52.787Z,1.50
2024-03-12T10:36:30.160Z,1.45
2024-03-12T10:38:59.254Z,1.42
2024-03-12T10:41:26.389Z,1.34
2024-03-12T10:43:55.699Z,1.26
2024-03-12T10:46:22.856Z,1.20
2024-03-12T10:48:52.791Z,1.17
2024-03-12T10:51:19.878Z,1.08
2024-03-12T10:53:53.671Z,1.01
2024-03-12T10:56:40.464Z,0.99
2024-03-12T10:59:11.964Z,0.95
2024-03-12T11:01:40.880Z,0.91
2024-03-12T11:04:15.527Z,0.83
2024-03-12T11:06:43.161Z,0.76
2024-03-12T11:09:12.712Z,0.69
2024-03-12T11:11:40.191Z,0.66
2024-03-12T11:14:08.448Z,0.63
2024-03-12T11:16:36.036Z,0.59
2024-03-12T11:19:23.754Z,0.55
2024-03-12T11:21:55.929Z,0.49
2024-03-12T11:24:26.760Z,0.43
2024-03-12T11:26:53.973Z,0.34
2024-03-12T11:29:56.787Z,0.30
2024-03-12T11:32:23.494Z,0.26
2024-03-12T11:34:50.396Z,0.19
2024-03-12T11:37:17.896Z,0.12
2024-03-12T11:39:44.711Z,0.08
2024-03-12T11:42:15.441Z,0.04
2024-03-12T11:44:48.968Z,0.00
2024-03-12T11:47:32.270Z,-0.03
2024-03-12T11:50:02.386Z,-0.04
2024-03-12T11:52:32.473Z,-0.10
2024-03-12T11:54:59.798Z,-0.14
2024-03-12T11:57:27.295Z,-0.20
2024-03-12T11:59:56.932Z,-0.24
2024-03-12T12:02:23.985Z,-0.28
2024-03-12T12:04:51.990Z,-0.30
2024-03-12T12:07:22.680Z,-0.32
2024-03-12T12:09:52.305Z,-0.37
2024-03-12T12:12:20.306Z,-0.38
2024-03-12T12:14:50.224Z,-0.39
2024-03-12T12:17:22.752Z,-0.39
2024-03-12T12:20:14.584Z,-0.40
2024-03-12T12:22:46.519Z,-0.44
2024-03-12T12:25:21.488Z,-0.44
2024-03-12T12:27:49.596Z,-0.46
2024-03-12T12:30:25.584Z,-0.47
2024-03-12T12:33:08.866Z,-0.49
2024-03-12T12:35:36.988Z,-0.49
2024-03-12T12:38:07.288Z,-0.49
2024-03-12T12:40:37.111Z,-0.51
2024-03-12T12:43:07.466Z,-0.53
2024-03-12T12:45:35.881Z,-0.54
2024-03-12T12:48:05.428Z,-0.56
2024-03-12T12:50:34.596Z,-0.58
2024-03-12T12:53:03.059Z,-0.57
2024-03-12T12:55:31.627Z,-0.54
2024-03-12T12:58:01.384Z,-0.55
2024-03-12T13:00:31.013Z,-0.56
2024-03-12T13:03:17.821Z,-0.57
2024-03-12T13:05:45.629Z,-0.59
2024-03-12T13:08:23.109Z,-0.62
2024-03-12T13:11:06.169Z,-0.67
2024-03-12T13:13:33.816Z,-0.71
2024-03-12T13:16:13.953Z,-0.73
2024-03-12T13:18:45.495Z,-0.73
2024-03-12T13:21:14.820Z,-0.73
2024-03-12T13:23:45.381Z,-0.73
2024-03-12T13:26:16.039Z,-0.72
2024-03-12T13:28:44.128Z,-0.69
2024-03-12T13:31:10.939Z,-0.66
2024-03-12T13:33:38.799Z,-0.64
2024-03-12T13:36:06.348Z,-0.62
2024-03-12T13:38:33.594Z,-0.62
2024-03-12T13:41:00.805Z,-0.64
2024-03-12T13:43:27.767Z,-0.66
2024-03-12T13:45:57.581Z,-0.67
2024-03-12T13:48:28.088Z,-0.71
2024-03-12T13:51:02.264Z,-0.74
2024-03-12T13:53:29.334Z,-0.79
2024-03-12T13:55:59.902Z,-0.83
2024-03-12T13:58:26.944Z,-0.87
2024-03-12T14:00:57.459Z,-0.90
2024-03-12T14:03:27.778Z,-0.90
2024-03-12T14:05:55.607Z,-0.90
2024-03-12T14:08:23.646Z,-0.90
2024-03-12T14:10:52.039Z,-0.92
2024-03-12T14:13:19.800Z,-0.93
2024-03-12T14:15:49.563Z,-0.93
2024-03-12T14:18:16.458Z,-0.90
2024-03-12T14:20:43.733Z,-0.87
2024-03-12T14:23:10.447Z,-0.83
2024-03-12T14:25:37.803Z,-0.79
2024-03-12T14:28:06.104Z,-0.78
2024-03-12T14:30:37.308Z,-0.78
2024-03-12T14:33:05.046Z,-0.80
2024-03-12T14:35:32.142Z,-0.80
2024-03-12T14:37:58.881Z,-0.81
2024-03-12T14:40:26.328Z,-0.79
2024-03-12T14:42:55.231Z,-0.79
2024-03-12T14:45:26.832Z,-0.81
2024-03-12T14:47:55.494Z,-0.83
2024-03-12T14:50:22.877Z,-0.85
2024-03-12T14:52:49.736Z,-0.86
2024-03-12T14:55:16.683Z,-0.87
2024-03-12T14:57:43.566Z,-0.87
2024-03-12T15:00:11.587Z,-0.90
2024-03-12T15:02:39.840Z,-0.91
2024-03-12T15:05:13.274Z,-0.88
2024-03-12T15:07:41.362Z,-0.86
2024-03-12T15:10:10.244Z,-0.84
2024-03-12T15:12:40.106Z,-0.82
2024-03-12T15:15:15.331Z,-0.80
2024-03-12T15:17:45.442Z,-0.78
2024-03-12T15:20:14.997Z,-0.80
2024-03-12T15:22:49.696Z,-0.81
2024-03-12T15:25:19.397Z,-0.80
2024-03-12T15:27:47.284Z,-0.83
2024-03-12T15:30:17.005Z,-0.85
2024-03-12T15:32:44.043Z,-0.86
2024-03-12T15:35:14.193Z,-0.86
2024-03-12T15:37:40.988Z,-0.87
2024-03-12T15:40:12.117Z,-0.89
2024-03-12T15:42:42.077Z,-0.89
2024-03-12T15:45:11.359Z,-0.89
2024-03-12T15:47:39.883Z,-0.90
2024-03-12T15:50:07.700Z,-0.91
2024-03-12T15:52:34.744Z,-0.90
2024-03-12T15:55:04.656Z,-0.88
2024-03-12T15:57:31.602Z,-0.91
2024-03-12T15:59:58.556Z,-0.92
2024-03-12T16:02:25.459Z,-0.92
2024-03-12T16:04:52.881Z,-0.93
2024-03-12T16:07:19.850Z,-0.94
2024-03-12T16:09:47.150Z,-0.94
2024-03-12T16:12:14.681Z,-0.93
2024-03-12T16:14:42.677Z,-0.93
2024-03-12T16:17:10.077Z,-0.94
2024-03-12T16:19:36.854Z,-0.95
2024-03-12T16:22:03.706Z,-0.97
2024-03-12T16:24:32.386Z,-0.97
2024-03-12T16:27:00.059Z,-0.96
2024-03-12T16:29:28.961Z,-0.95
2024-03-12T16:31:56.013Z,-0.96
2024-03-12T16:34:26.166Z,-0.95
2024-03-12T16:36:57.106Z,-0.95
2024-03-12T16:39:23.951Z,-0.94
2024-03-12T16:41:56.856Z,-0.94
2024-03-12T16:44:25.005Z,-0.97
2024-03-12T16:46:54.754Z,-0.98
2024-03-12T16:49:22.404Z,-1.00
2024-03-12T16:51:49.437Z,-1.00
2024-03-12T16:54:16.719Z,-1.00
2024-03-12T16:56:46.971Z,-0.99
2024-03-12T16:59:16.136Z,-0.98
2024-03-12T17:01:43.943Z,-0.95
2024-03-12T17:04:12.319Z,-0.92
2024-03-12T17:06:42.080Z,-0.91
2024-03-12T17:09:10.217Z,-0.92
2024-03-12T17:11:38.312Z,-0.92
2024-03-12T17:14:10.142Z,-0.92
2024-03-12T17:16:41.866Z,-0.92
2024-03-12T17:19:10.411Z,-0.91
2024-03-12T17:21:39.359Z,-0.89
2024-03-12T17:24:07.824Z,-0.88
2024-03-12T17:26:37.499Z,-0.86
2024-03-12T17:29:05.400Z,-0.85
2024-03-12T17:31:32.591Z,-0.83
2024-03-12T17:34:00.282Z,-0.81
2024-03-12T17:36:28.152Z,-0.80
2024-03-12T17:38:55.263Z,-0.79
2024-03-12T17:41:23.688Z,-0.77
2024-03-12T17:43:51.327Z,-0.76
2024-03-12T17:46:18.504Z,-0.75
2024-03-12T17:48:46.014Z,-0.74
2024-03-12T17:51:13.598Z,-0.74
2024-03-12T17:53:41.623Z,-0.74
2024-03-12T17:56:12.215Z,-0.73
2024-03-12T17:58:39.901Z,-0.72
2024-03-12T18:01:10.943Z,-0.72
2024-03-12T18:03:38.313Z,-0.73
2024-03-12T18:06:07.103Z,-0.73
2024-03-12T18:08:38.536Z,-0.73
2024-03-12T18:11:10.846Z,-0.73
2024-03-12T18:18:05.662Z,-0.76
2024-03-12T18:20:35.726Z,-0.76
2024-03-12T18:23:03.652Z,-0.76
2024-03-12T18:25:30.897Z,-0.74
2024-03-12T18:27:58.364Z,-0.73
2024-03-12T18:30:26.891Z,-0.73
2024-03-12T18:32:56.266Z,-0.72
2024-03-12T18:35:26.188Z,-0.70
2024-03-12T18:37:56.381Z,-0.70
2024-03-12T18:40:27.458Z,-0.69
2024-03-12T18:42:56.222Z,-0.68
2024-03-12T18:45:26.150Z,-0.66
2024-03-12T18:47:55.682Z,-0.65
2024-03-12T18:50:25.976Z,-0.65
2024-03-12T18:52:55.820Z,-0.63
2024-03-12T18:55:27.315Z,-0.62
2024-03-12T18:57:57.505Z,-0.59
2024-03-12T19:00:26.923Z,-0.56
2024-03-12T19:02:57.589Z,-0.53
2024-03-12T19:05:28.298Z,-0.51
2024-03-12T19:07:58.221Z,-0.49
2024-03-12T19:10:30.826Z,-0.47
2024-03-12T19:13:02.251Z,-0.45
2024-03-12T19:15:36.108Z,-0.42
2024-03-12T19:18:13.247Z,-0.39
2024-03-12T19:20:42.238Z,-0.36
2024-03-12T19:23:11.733Z,-0.34
2024-03-12T19:25:42.148Z,-0.33
2024-03-12T19:28:11.258Z,-0.31
2024-03-12T19:30:40.479Z,-0.31
2024-03-12T19:41:45.140Z,-0.22
2024-03-12T19:44:12.679Z,-0.21
2024-03-12T19:46:43.315Z,-0.20
2024-03-12T19:49:10.818Z,-0.20
2024-03-12T19:51:38.461Z,-0.18
2024-03-12T19:54:08.977Z,-0.18
2024-03-12T19:56:36.867Z,-0.18
2024-03-12T19:59:05.346Z,-0.18
2024-03-12T20:01:34.022Z,-0.18
2024-03-12T20:04:01.921Z,-0.15
2024-03-12T20:06:29.721Z,-0.14
2024-03-12T20:09:00.682Z,-0.14
2024-03-12T20:11:27.895Z,-0.13
2024-03-12T20:13:55.754Z,-0.13
2024-03-12T20:16:22.841Z,-0.12
2024-03-12T20:18:49.769Z,-0.11
2024-03-12T20:21:17.579Z,-0.10
2024-03-12T20:23:44.343Z,-0.09
2024-03-12T20:26:11.251Z,-0.08
2024-03-12T20:28:41.644Z,-0.07
2024-03-12T20:31:10.300Z,-0.07
2024-03-12T20:33:39.123Z,-0.11
2024-03-12T20:36:07.907Z,-0.15
2024-03-12T20:38:35.181Z,-0.21
2024-03-12T20:41:01.962Z,-0.26
2024-03-12T20:43:29.064Z,-0.31
2024-03-12T20:45:56.793Z,-0.35
2024-03-12T20:48:24.153Z,-0.40
2024-03-12T20:50:51.039Z,-0.44
2024-03-12T20:53:18.127Z,-0.50
2024-03-12T20:55:44.955Z,-0.54
2024-03-12T20:58:14.097Z,-0.60
2024-03-12T21:00:41.863Z,-0.65
2024-03-12T21:03:09.727Z,-0.69
2024-03-12T21:05:38.775Z,-0.74
2024-03-12T21:08:07.526Z,-0.78
2024-03-12T21:10:34.906Z,-0.81
2024-03-12T21:13:02.330Z,-0.82
2024-03-12T21:15:30.297Z,-0.85
2024-03-12T21:17:57.152Z,-0.86
2024-03-12T21:20:34.639Z,-0.85
2024-03-12T21:23:04.410Z,-0.82
2024-03-12T21:25:32.700Z,-0.80
2024-03-12T21:27:59.518Z,-0.78
2024-03-12T21:30:28.324Z,-0.77
2024-03-12T21:32:55.978Z,-0.73
2024-03-12T21:35:24.137Z,-0.71
2024-03-12T21:37:52.041Z,-0.69
2024-03-12T21:40:19.965Z,-0.66
2024-03-12T21:42:47.098Z,-0.62
2024-03-12T21:45:15.963Z,-0.57
2024-03-12T21:47:44.949Z,-0.52
2024-03-12T21:50:17.080Z,-0.48
2024-03-12T21:52:45.251Z,-0.44
2024-03-12T21:55:12.674Z,-0.40
2024-03-12T21:57:43.145Z,-0.37
2024-03-12T22:00:18.197Z,-0.35
2024-03-12T22:02:45.245Z,-0.33
2024-03-12T22:05:15.108Z,-0.32
2024-03-12T22:07:44.193Z,-0.32
2024-03-12T22:10:12.552Z,-0.33
2024-03-12T22:12:39.360Z,-0.38
2024-03-12T22:15:07.732Z,-0.42
2024-03-12T22:17:36.790Z,-0.46
2024-03-12T22:20:05.899Z,-0.48
2024-03-12T22:22:33.335Z,-0.49
2024-03-12T22:25:00.287Z,-0.51
2024-03-12T22:27:28.548Z,-0.51
2024-03-12T22:29:55.151Z,-0.52
2024-03-12T22:32:26.112Z,-0.53
2024-03-12T22:34:52.996Z,-0.54
2024-03-12T22:37:19.879Z,-0.56
2024-03-12T22:39:47.578Z,-0.58
2024-03-12T22:42:15.019Z,-0.61
2024-03-12T22:44:42.229Z,-0.63
2024-03-12T22:47:11.411Z,-0.67
2024-03-12T22:49:43.609Z,-0.71
2024-03-12T22:52:11.077Z,-0.77
2024-03-12T22:54:41.959Z,-0.83
2024-03-12T22:57:09.993Z,-0.87
2024-03-12T22:59:37.618Z,-0.91
2024-03-12T23:02:04.966Z,-0.94
2024-03-12T23:04:34.453Z,-0.98
2024-03-12T23:07:01.705Z,-0.99
2024-03-12T23:09:29.454Z,-1.01
2024-03-12T23:11:56.824Z,-1.01
2024-03-12T23:14:24.835Z,-1.01
2024-03-12T23:16:51.779Z,-1.02
2024-03-12T23:19:19.108Z,-1.04
2024-03-12T23:21:47.726Z,-1.02
2024-03-12T23:24:14.981Z,-1.02
2024-03-12T23:26:42.978Z,-1.02
2024-03-12T23:29:12.883Z,-1.02
2024-03-12T23:31:39.748Z,-1.03
2024-03-12T23:34:06.731Z,-1.05
2024-03-12T23:36:33.672Z,-1.06
2024-03-12T23:39:00.782Z,-1.06
2024-03-12T23:41:30.448Z,-1.07
2024-03-12T23:43:57.151Z,-1.07
2024-03-12T23:46:24.956Z,-1.08
2024-03-12T23:48:51.823Z,-1.06
2024-03-12T23:51:19.139Z,-1.05
2024-03-12T23:53:46.831Z,-1.04
2024-03-12T23:56:13.460Z,-1.04
2024-03-12T23:58:40.069Z,-1.01
